Карточка аэропорта UACC

Внимание!
Информация на этой странице в стадии наполнения.
Если вы не увидели какой-то информации, или заметили неточность - пожалуйста сообщите нам!
Спасибо!
Команда RU-STAFF
Название аэропортаАстана
Название аэропорта (англ.)Astana
Превышение1165 ft. (355.1 m.)
Координаты51°1.3319999999999', 71°28.014'
Высота перехода10000ft
Эшелон переходаFL120, QNH<733:FL130
Коды ответчика0601-0627, 7201-7217
Зона ОрВДАстана РПИ (UACN)
Данные METARUACC 240900Z 26005MPS 230V300 9999 SCT043 27/15 Q1002 NOSIG RMK QFE720/0961
Проноз погоды (TAF)UACC 240504Z 2406/2506 30006MPS 9999 SCT040CB BKN100 TX28/2410Z TN15/2500Z TEMPO 2406/2416 VRB18MPS 3100 -TSRA SQ BKN030CB BECMG 2416/2418 35005MPS SCT030 BKN100 TEMPO 2418/2423 03005MPS SCT011 TEMPO 2423/2503 07003MPS 3100 BR FEW003
NOTAMshow/hide NOTAM
AWOS   TABLE

Информация о ВПП

ВПП Длина ВПП (м.) Покрытие Курс ВПП Частота ILS
043500Асфальтобетон35109.5
223500Асфальтобетон215111.7

Диспетчерские позиции

Позывной Наименование органа УВД Частота
UACC_TWRАстана Вышка118.7
UACC_GNDАстана Руление119.6
UACC_R_APPАстана Круг120.7
UACC_APPАстана Подход124.6



Спутниковое изображение